Urbandale, IA (50323)

10:23 PM CST on December 13, 2017 (GMT -0600)
Bristol Cove | | Change Station

Elev 989 ft 41.62 °N, 93.81 °W | Updated 30 seconds ago

Overcast
Overcast
32.5 °F
Feels Like 22 °F
N
15.9
Wind Variable Wind from NNE
Gusts 19.9 mph

Today
High -- | Low -- °F
--% Chance of Precip.
Yesterday
High -- | Low -- °F
Precip. -- in
Pressure 29.92 in
Visibility 10.0 miles
Clouds Overcast 2900 ft
Windchill 22 °F
Dew Point 5 °F
Humidity 31%
Rainfall 0.00 in
Snow Depth Not available.
7:33 AM 4:45 PM
Waning Crescent, 15% visible
SPECI KDSM 140411Z 35019G27KT 10SM OVC029 00/M06 A2992 RMK AO2 PK WND 36027/0355 T00001061
Pressure 29.92 in
Visibility 10.0 miles
Clouds Overcast 2900 ft
Windchill 22 °F
Dew Point 5 °F
Humidity 31%
Rainfall 0.00 in
Snow Depth Not available.
7:33 AM 4:45 PM
Waning Crescent, 15% visible
SPECI KDSM 140411Z 35019G27KT 10SM OVC029 00/M06 A2992 RMK AO2 PK WND 36027/0355 T00001061

Get Severe Weather Alerts

Thanks for signing up!

Be on the lookout for a verification email in your inbox.

You'll start receiving the daily forecast at 6 AM.

×

10-Day Weather Forecast

Almanac

Astronomy

Dec. 13, 2017 Rise Set
Actual Time
Civil Twilight
Nautical Twilight
Astronomical Twilight
Moon
Length of Visible Light
Length of Day
Tomorrow will be .
, % of the Moon is Illuminated

Today's Extremes

State Highs State Lows

Community

WunderPhotos

Category 6

Welcome to Category 6. This is the collective home for Weather Underground's featured writeups by Dr. Jeff Masters (right), Bob Henson (left), Chris Burt, and other regular contributors.

Nearby

Air Quality

  Air Quality AQ Index Pollutant
Not available.

Snow Depth

Station Depth Elevation

Earthquake Activity

City Distance Mag. Time & Date
Minimum magnitude displayed is 2.5.

Coastal Water Temperatures

Place Temperature

Stations

Nearby Weather Stations

Station Location Temp. Windchill Dew Point Humidity Wind Precip. Elev Updated Type
                   

Watches & Warnings

There are currently no watches in effect.